Time;durP1;ratioP1;P1;durP2;ratioP2;P2;SDS_P1;SDS_P2;PMS_P1;PMS_P2;Temp;Humidity;BMP_temperature;BMP_pressure;BME280_temperature;BME280_humidity;BME280_pressure;Samples;Min_cycle;Max_cycle;Signal;HPM_P1;HPM_P2
2022/02/10 00:03:46;;;;;;;51.72;33.42;;;153.60;2252.80;;;;;;4877205;29;20076;-58
2022/02/10 00:22:29;;;;;;;49.85;30.58;;;128.80;2252.80;;;;;;4972632;28;20750;-58
2022/02/10 00:36:05;;;;;;;32.55;18.98;;;128.50;2252.80;;;;;;4971954;28;20070;-60
2022/02/10 00:38:34;;;;;;;36.97;23.30;;;128.40;2252.80;;;;;;4971951;28;20035;-60
2022/02/10 00:41:00;;;;;;;62.42;33.53;;;128.40;2252.80;;;;;;4971970;28;20385;-59
2022/02/10 00:43:26;;;;;;;26.90;17.48;;;128.60;2252.80;;;;;;4972303;28;20035;-58
2022/02/10 00:45:52;;;;;;;72.03;41.85;;;128.70;2252.80;;;;;;4972018;28;20039;-58
2022/02/10 00:48:18;;;;;;;54.47;34.10;;;128.70;2252.80;;;;;;4971847;28;20162;-58
2022/02/10 00:50:46;;;;;;;26.08;16.45;;;128.50;2252.80;;;;;;4972018;28;20034;-58
2022/02/10 00:53:24;;;;;;;27.45;17.15;;;128.40;2252.80;;;;;;4971644;28;20066;-57
2022/02/10 00:55:50;;;;;;;30.20;20.05;;;128.30;2252.80;;;;;;4971365;28;20041;-60
2022/02/10 00:58:30;;;;;;;29.20;17.90;;;128.20;2252.80;;;;;;4971673;28;20023;-59
2022/02/10 01:30:30;;;;;;;59.13;35.53;;;128.00;2252.80;;;;;;4930759;29;20038;-59
2022/02/10 01:32:59;;;;;;;60.35;37.22;;;103.20;2227.20;;;;;;4930691;29;20582;-58
2022/02/10 01:35:27;;;;;;;55.65;33.67;;;103.00;2227.20;;;;;;4930857;29;20490;-58
2022/02/10 01:37:53;;;;;;;40.35;26.30;;;102.90;2227.20;;;;;;4930732;29;20110;-58
2022/02/10 02:04:41;;;;;;;18.40;10.68;;;103.30;2227.20;;;;;;4974932;28;20050;-59
2022/02/10 02:07:07;;;;;;;15.98;10.38;;;103.30;2227.20;;;;;;4974936;28;20026;-58
2022/02/10 02:09:33;;;;;;;17.25;9.73;;;103.30;2227.20;;;;;;4974791;28;20125;-58
2022/02/10 02:11:59;;;;;;;17.20;10.38;;;103.30;2227.20;;;;;;4974734;28;20162;-58
2022/02/10 02:14:26;;;;;;;17.70;10.98;;;128.00;2252.80;;;;;;4974813;28;20038;-58
2022/02/10 02:16:57;;;;;;;29.10;18.42;;;128.00;2252.80;;;;;;4974459;28;20049;-60
2022/02/10 02:19:23;;;;;;;32.10;19.08;;;128.10;2252.80;;;;;;4974542;28;20038;-58
2022/02/10 02:21:49;;;;;;;24.35;14.82;;;128.10;2252.80;;;;;;4974372;28;20039;-57
2022/02/10 02:24:20;;;;;;;37.95;21.50;;;128.00;2252.80;;;;;;4974416;28;20462;-56
2022/02/10 02:26:51;;;;;;;23.55;13.75;;;128.00;2252.80;;;;;;4974598;28;20045;-58
2022/02/10 02:29:24;;;;;;;18.63;11.48;;;103.30;2227.20;;;;;;4974439;28;20038;-58
2022/02/10 02:31:55;;;;;;;17.20;9.07;;;103.30;2227.20;;;;;;4974143;28;20038;-57
2022/02/10 03:04:11;;;;;;;47.78;24.27;;;103.00;2227.20;;;;;;4858603;29;20036;-58
2022/02/10 03:07:46;;;;;;;62.63;32.25;;;103.30;2227.20;;;;;;4858205;29;20527;-57
2022/02/10 03:12:50;;;;;;;60.58;32.28;;;128.00;2252.80;;;;;;4821111;29;20504;-58
2022/02/10 03:15:46;;;;;;;49.80;28.08;;;128.00;2252.80;;;;;;4848089;29;20049;-58
2022/02/10 04:09:46;;;;;;;60.88;38.35;;;103.10;2227.20;;;;;;4972655;28;20065;-59
2022/02/10 04:14:46;;;;;;;35.10;25.35;;;103.00;2227.20;;;;;;4972548;28;20074;-60
2022/02/10 05:34:46;;;;;;;42.83;22.52;;;102.50;2227.20;;;;;;4951942;29;20481;-59
2022/02/10 05:37:14;;;;;;;33.22;22.33;;;102.50;2227.20;;;;;;4951853;29;20489;-58
2022/02/10 05:39:45;;;;;;;39.63;24.50;;;102.50;2227.20;;;;;;4951999;29;20041;-58
2022/02/10 05:55:31;;;;;;;13.60;8.77;;;102.50;2227.20;;;;;;4930392;29;20422;-57
2022/02/10 05:58:05;;;;;;;12.15;7.38;;;102.40;2227.20;;;;;;4930711;29;20023;-58
2022/02/10 06:49:49;;;;;;;70.55;47.92;;;103.00;2227.20;;;;;;4955076;29;20090;-57
2022/02/10 06:57:47;;;;;;;164.20;81.43;;;128.00;2252.80;;;;;;4954314;29;20031;-61
2022/02/10 07:53:51;;;;;;;34.08;21.95;;;179.50;2252.80;;;;;;4913223;29;20066;-62
2022/02/10 07:56:50;;;;;;;32.92;21.20;;;256.20;2227.20;;;;;;4913347;29;20096;-60
2022/02/10 09:01:51;;;;;;;205.95;184.30;;;563.60;1203.20;;;;;;4952184;29;20535;-62
2022/02/10 09:26:34;;;;;;;142.13;126.95;;;589.40;1100.80;;;;;;4911578;29;20043;-60
2022/02/10 09:48:19;;;;;;;82.50;72.38;;;512.10;1177.60;;;;;;4874274;29;20133;-60
2022/02/10 10:00:53;;;;;;;57.92;47.00;;;410.30;1382.40;;;;;;4874001;29;20089;-62
2022/02/10 10:03:30;;;;;;;58.50;41.30;;;409.60;1433.60;;;;;;4890179;29;20045;-61
2022/02/10 10:08:58;;;;;;;62.33;44.22;;;384.70;1459.20;;;;;;4896493;29;20032;-60
2022/02/10 10:12:26;;;;;;;65.85;45.10;;;384.80;1433.60;;;;;;4896431;29;20024;-60
2022/02/10 10:14:20;;;;;;;53.42;35.47;;;384.80;1459.20;;;;;;4940345;29;20102;-60
2022/02/10 10:22:57;;;;;;;43.30;28.33;;;384.40;1459.20;;;;;;4877377;29;20488;-64
2022/02/10 10:50:55;;;;;;;42.60;28.42;;;384.00;1536.00;;;;;;4877564;29;20052;-64
2022/02/10 10:56:15;;;;;;;26.58;18.25;;;384.60;1484.80;;;;;;4886833;29;20040;-64
2022/02/10 11:38:47;;;;;;;39.78;27.25;;;384.70;1664.00;;;;;;4973317;28;20468;-61
2022/02/10 11:43:52;;;;;;;45.47;27.27;;;409.70;1664.00;;;;;;4972833;28;20035;-60
2022/02/10 12:36:05;;;;;;;31.60;19.95;;;435.60;1587.20;;;;;;4972069;28;20122;-62
2022/02/10 14:09:49;;;;;;;60.30;37.45;;;461.50;1305.60;;;;;;4971067;28;20145;-62
2022/02/10 14:14:59;;;;;;;167.13;105.80;;;461.40;1305.60;;;;;;4970951;28;20034;-62
2022/02/10 14:23:17;;;;;;;58.03;39.13;;;461.50;1356.80;;;;;;4892308;29;20072;-61
2022/02/10 14:26:01;;;;;;;49.92;31.75;;;461.40;1408.00;;;;;;4892455;29;20037;-61
2022/02/10 14:28:27;;;;;;;35.10;26.23;;;461.30;1408.00;;;;;;4892411;29;20551;-61
2022/02/10 14:30:54;;;;;;;35.30;21.15;;;461.20;1433.60;;;;;;4892442;29;20041;-61
2022/02/10 14:33:25;;;;;;;70.80;45.65;;;461.20;1433.60;;;;;;4876675;29;20032;-61
2022/02/10 14:35:59;;;;;;;78.07;50.28;;;461.10;1433.60;;;;;;4892193;29;20037;-63
2022/02/10 14:38:43;;;;;;;65.90;36.40;;;461.00;1433.60;;;;;;4892394;29;20040;-62
2022/02/10 15:12:50;;;;;;;54.22;37.15;;;435.70;1433.60;;;;;;4973789;28;20397;-62
2022/02/10 15:32:24;;;;;;;70.85;54.95;;;410.30;1536.00;;;;;;4914094;29;20525;-60
2022/02/10 16:11:06;;;;;;;127.50;90.72;;;359.20;1740.80;;;;;;4970789;28;20192;-63
2022/02/10 16:18:52;;;;;;;105.68;76.20;;;358.90;1766.40;;;;;;4970867;28;20033;-59
2022/02/10 16:21:37;;;;;;;119.45;93.75;;;358.70;1792.00;;;;;;4970889;28;20410;-60
2022/02/10 16:24:14;;;;;;;83.10;56.58;;;358.70;1792.00;;;;;;4970570;28;20112;-63
2022/02/10 16:26:54;;;;;;;74.18;58.40;;;358.50;1817.60;;;;;;4970726;28;20031;-61
2022/02/10 16:29:22;;;;;;;60.92;45.65;;;333.70;1843.20;;;;;;4970580;28;20031;-61
2022/02/10 16:31:48;;;;;;;34.92;24.92;;;333.40;1868.80;;;;;;4970829;28;20114;-62
2022/02/10 16:34:14;;;;;;;32.75;23.33;;;333.30;1868.80;;;;;;4953397;28;20046;-62
2022/02/10 16:36:40;;;;;;;30.38;20.27;;;333.20;1894.40;;;;;;4970490;28;20027;-62
2022/02/10 16:39:06;;;;;;;25.33;17.77;;;333.20;1894.40;;;;;;4970292;28;20035;-63
2022/02/10 16:41:32;;;;;;;31.83;20.40;;;333.10;1920.00;;;;;;4970304;28;20034;-61
2022/02/10 16:43:59;;;;;;;48.88;33.92;;;333.20;1894.40;;;;;;4953154;28;20078;-61
2022/02/10 16:46:25;;;;;;;32.10;20.17;;;333.10;1920.00;;;;;;4970573;28;20031;-62
2022/02/10 16:48:51;;;;;;;32.88;18.77;;;333.00;1945.60;;;;;;4970228;28;20027;-60
2022/02/10 16:51:19;;;;;;;37.50;22.10;;;333.00;1945.60;;;;;;4970334;28;20054;-59
2022/02/10 16:53:50;;;;;;;27.27;18.50;;;332.80;1971.20;;;;;;4970342;28;20019;-61
2022/02/10 16:56:21;;;;;;;43.22;31.45;;;332.80;1971.20;;;;;;4970319;28;20597;-59
2022/02/10 16:59:23;;;;;;;29.48;19.00;;;332.90;1971.20;;;;;;4970146;28;20397;-60
2022/02/10 17:02:00;;;;;;;32.90;19.55;;;333.20;1971.20;;;;;;4967796;28;20448;-59
2022/02/10 17:28:47;;;;;;;28.35;18.27;;;307.90;2150.40;;;;;;4913602;29;20129;-58
2022/02/10 17:33:53;;;;;;;32.13;22.17;;;308.00;2227.20;;;;;;4927397;29;20031;-59
2022/02/10 17:52:46;;;;;;;41.42;28.25;;;307.70;2304.00;;;;;;4889987;29;20443;-58
2022/02/10 17:55:12;;;;;;;27.33;18.15;;;307.70;2304.00;;;;;;4890749;29;20028;-59
2022/02/10 17:57:38;;;;;;;31.52;19.13;;;307.70;2304.00;;;;;;4890723;29;20036;-58
2022/02/10 18:00:07;;;;;;;35.33;25.67;;;307.60;2304.00;;;;;;4890777;29;20105;-59
2022/02/10 18:02:32;;;;;;;28.80;17.38;;;307.50;2304.00;;;;;;4888836;29;20671;-59
2022/02/10 18:05:01;;;;;;;26.00;18.95;;;307.50;2304.00;;;;;;4889686;29;20037;-58
2022/02/10 18:07:27;;;;;;;28.88;19.30;;;307.40;2304.00;;;;;;4889921;29;20036;-58
2022/02/10 18:10:19;;;;;;;27.95;19.55;;;307.40;2304.00;;;;;;4905717;29;20043;-58
2022/02/10 18:15:36;;;;;;;24.52;16.58;;;307.40;2304.00;;;;;;4949343;29;20078;-59
2022/02/10 18:18:13;;;;;;;26.05;19.85;;;307.30;2304.00;;;;;;4949376;29;20114;-59
2022/02/10 18:20:43;;;;;;;30.30;26.70;;;307.30;2304.00;;;;;;4949149;29;20054;-58
2022/02/10 18:23:17;;;;;;;37.38;28.02;;;307.30;2304.00;;;;;;4948219;29;20106;-59
2022/02/10 18:25:53;;;;;;;43.88;33.90;;;307.20;2304.00;;;;;;4949980;28;20402;-59
2022/02/10 18:28:30;;;;;;;28.65;19.65;;;307.20;2304.00;;;;;;4951777;29;20393;-59
2022/02/10 18:33:40;;;;;;;32.72;25.55;;;282.50;2278.40;;;;;;4952734;29;20070;-59
2022/02/10 19:08:23;;;;;;;57.17;40.45;;;282.10;2227.20;;;;;;4901018;29;20035;-59
2022/02/10 19:10:55;;;;;;;70.15;46.13;;;282.10;2227.20;;;;;;4895900;29;20063;-59
2022/02/10 19:13:23;;;;;;;95.68;62.38;;;281.90;2227.20;;;;;;4897149;29;20048;-59
2022/02/10 19:15:51;;;;;;;78.38;49.13;;;281.80;2252.80;;;;;;4905922;29;20040;-58
2022/02/10 19:18:17;;;;;;;83.03;53.03;;;281.70;2278.40;;;;;;4912348;29;20039;-58
2022/02/10 19:20:43;;;;;;;82.28;50.13;;;281.60;2278.40;;;;;;4912242;29;20028;-61
2022/02/10 19:23:10;;;;;;;52.90;36.45;;;281.60;2278.40;;;;;;4912116;29;20076;-59
2022/02/10 19:25:37;;;;;;;112.22;67.90;;;256.90;2252.80;;;;;;4912189;29;20095;-58
2022/02/10 19:28:05;;;;;;;85.53;53.85;;;256.80;2252.80;;;;;;4911534;29;20494;-58
2022/02/10 19:30:33;;;;;;;73.10;54.05;;;256.70;2252.80;;;;;;4911655;29;20551;-59
2022/02/10 19:33:02;;;;;;;152.07;95.65;;;256.60;2252.80;;;;;;4912116;29;20067;-58
2022/02/10 19:35:30;;;;;;;103.80;64.22;;;256.50;2252.80;;;;;;4912024;29;20063;-58
2022/02/10 19:38:00;;;;;;;122.22;75.90;;;256.50;2252.80;;;;;;4911152;29;20083;-58
2022/02/10 19:40:28;;;;;;;144.77;91.80;;;256.50;2252.80;;;;;;4911714;29;20069;-59
2022/02/10 19:42:55;;;;;;;86.00;48.25;;;256.50;2252.80;;;;;;4948865;28;20055;-58
2022/02/10 19:45:23;;;;;;;129.07;75.28;;;256.30;2252.80;;;;;;4971527;28;20032;-59
2022/02/10 19:47:50;;;;;;;39.90;28.48;;;256.20;2252.80;;;;;;4971557;28;20138;-58
2022/02/10 19:50:21;;;;;;;60.53;36.47;;;231.30;2252.80;;;;;;4971859;28;20054;-58
2022/02/10 19:52:49;;;;;;;71.28;43.67;;;231.30;2252.80;;;;;;4971647;28;20114;-58
2022/02/10 19:55:20;;;;;;;72.90;49.75;;;231.30;2252.80;;;;;;4971135;28;20031;-59
2022/02/10 19:57:47;;;;;;;102.10;70.38;;;231.30;2252.80;;;;;;4971368;28;20027;-58
2022/02/10 20:00:18;;;;;;;281.63;194.73;;;231.30;2252.80;;;;;;4970997;28;20042;-58
2022/02/10 20:02:44;;;;;;;152.23;101.13;;;231.30;2252.80;;;;;;4970862;28;20051;-58
2022/02/10 20:05:10;;;;;;;170.13;112.65;;;231.30;2252.80;;;;;;4971282;28;20018;-58
2022/02/10 20:07:41;;;;;;;309.42;200.50;;;231.30;2252.80;;;;;;4970963;28;20031;-58
2022/02/10 20:10:09;;;;;;;127.60;81.47;;;231.20;2252.80;;;;;;4971352;28;20023;-58
2022/02/10 20:12:37;;;;;;;92.47;58.25;;;231.30;2252.80;;;;;;4971007;28;20030;-59
2022/02/10 20:15:04;;;;;;;241.60;162.13;;;231.30;2252.80;;;;;;4970845;28;20027;-58
2022/02/10 20:17:29;;;;;;;138.63;98.13;;;231.30;2252.80;;;;;;4970848;28;20039;-59
2022/02/10 20:19:55;;;;;;;124.25;75.15;;;231.30;2252.80;;;;;;4970615;28;20039;-58
2022/02/10 20:22:21;;;;;;;72.57;49.60;;;231.10;2252.80;;;;;;4970750;28;20038;-59
2022/02/10 20:24:47;;;;;;;57.90;38.13;;;231.00;2252.80;;;;;;4970150;28;20033;-59
2022/02/10 20:27:12;;;;;;;50.10;33.15;;;230.90;2252.80;;;;;;4969002;28;20027;-60
2022/02/10 20:29:38;;;;;;;295.77;190.27;;;230.80;2252.80;;;;;;4969389;28;20504;-59
2022/02/10 20:32:05;;;;;;;152.60;106.78;;;230.80;2252.80;;;;;;4969270;28;20042;-59
2022/02/10 20:34:32;;;;;;;163.68;110.72;;;230.80;2252.80;;;;;;4968924;28;20030;-60
2022/02/10 20:37:01;;;;;;;111.18;75.05;;;230.90;2252.80;;;;;;4949625;28;20046;-58
2022/02/10 20:39:28;;;;;;;61.22;45.20;;;230.90;2252.80;;;;;;4969699;28;20014;-57
2022/02/10 20:42:02;;;;;;;33.78;22.58;;;230.90;2252.80;;;;;;4970906;28;20034;-57
2022/02/10 20:44:29;;;;;;;38.60;29.75;;;230.90;2252.80;;;;;;4970799;28;20386;-58
2022/02/10 20:46:55;;;;;;;40.08;27.55;;;230.90;2252.80;;;;;;4970703;28;20023;-59
2022/02/10 20:49:26;;;;;;;40.58;31.02;;;230.80;2252.80;;;;;;4970280;28;20038;-59
2022/02/10 20:51:53;;;;;;;53.97;38.15;;;230.80;2252.80;;;;;;4970906;28;20022;-58
2022/02/10 20:54:20;;;;;;;56.35;37.55;;;230.60;2252.80;;;;;;4971562;28;20074;-58
2022/02/10 20:56:45;;;;;;;57.65;39.47;;;230.50;2252.80;;;;;;4971786;28;20031;-58
2022/02/10 21:01:57;;;;;;;91.70;64.93;;;230.50;2252.80;;;;;;4971943;28;20035;-59
2022/02/10 21:04:23;;;;;;;118.88;71.88;;;230.40;2252.80;;;;;;4971683;28;20054;-59
2022/02/10 21:07:00;;;;;;;67.88;49.38;;;230.40;2252.80;;;;;;4971462;28;20023;-59
2022/02/10 21:10:28;;;;;;;109.90;70.85;;;230.40;2252.80;;;;;;4971745;28;20058;-59
2022/02/10 21:12:21;;;;;;;124.28;75.13;;;230.50;2252.80;;;;;;4962634;28;20065;-59
2022/02/10 21:14:48;;;;;;;156.55;96.15;;;230.50;2252.80;;;;;;4971746;28;20030;-59
2022/02/10 21:17:20;;;;;;;78.45;47.60;;;230.50;2252.80;;;;;;4971599;28;20465;-59
2022/02/10 21:19:46;;;;;;;45.38;27.33;;;230.40;2252.80;;;;;;4971535;28;20445;-59
2022/02/10 21:22:16;;;;;;;34.60;21.80;;;230.50;2252.80;;;;;;4971322;28;20058;-58
2022/02/10 21:24:49;;;;;;;52.00;32.28;;;230.40;2252.80;;;;;;4971302;28;20027;-58
2022/02/10 21:30:00;;;;;;;106.32;61.85;;;230.40;2252.80;;;;;;4971396;28;20046;-58
2022/02/10 21:32:28;;;;;;;111.97;68.13;;;205.70;2252.80;;;;;;4971374;28;20041;-58
2022/02/10 21:35:33;;;;;;;192.32;122.80;;;205.70;2252.80;;;;;;4971259;28;20050;-58
2022/02/10 21:38:08;;;;;;;278.52;167.65;;;205.60;2252.80;;;;;;4968222;28;20093;-58
2022/02/10 21:41:02;;;;;;;406.05;245.90;;;205.60;2252.80;;;;;;4971370;28;20477;-58
2022/02/10 21:59:47;;;;;;;69.57;41.40;;;205.60;2252.80;;;;;;4970746;28;20073;-58
2022/02/10 22:10:34;;;;;;;36.15;23.20;;;205.30;2252.80;;;;;;4974750;28;20556;-58
2022/02/10 22:18:50;;;;;;;109.75;71.13;;;205.20;2252.80;;;;;;4975030;28;20038;-58
2022/02/10 22:21:39;;;;;;;104.18;65.50;;;205.10;2252.80;;;;;;4974629;28;20038;-58
2022/02/10 22:24:11;;;;;;;78.35;49.28;;;205.10;2252.80;;;;;;4974599;28;20492;-58
2022/02/10 22:26:38;;;;;;;59.20;38.05;;;205.20;2252.80;;;;;;4974653;28;20026;-58
2022/02/10 22:36:54;;;;;;;47.67;32.95;;;205.20;2252.80;;;;;;4933963;29;20046;-58
2022/02/10 22:39:20;;;;;;;43.83;29.60;;;205.20;2252.80;;;;;;4933616;29;20031;-58
2022/02/10 22:41:46;;;;;;;51.13;34.95;;;205.10;2252.80;;;;;;4933821;29;20068;-58
2022/02/10 22:44:12;;;;;;;28.25;20.40;;;205.10;2252.80;;;;;;4933468;29;20043;-58
2022/02/10 22:46:38;;;;;;;26.88;16.50;;;205.10;2252.80;;;;;;4933507;29;20170;-58
2022/02/10 22:49:05;;;;;;;32.90;20.25;;;204.90;2252.80;;;;;;4933738;29;20127;-58
2022/02/10 22:51:32;;;;;;;37.20;23.13;;;180.10;2252.80;;;;;;4933479;29;20060;-58
2022/02/10 22:53:59;;;;;;;49.55;27.60;;;180.10;2252.80;;;;;;4933636;29;20641;-58
2022/02/10 22:56:29;;;;;;;22.73;17.42;;;204.80;2252.80;;;;;;4933513;29;20120;-58
2022/02/10 22:58:57;;;;;;;20.75;14.82;;;204.80;2252.80;;;;;;4933277;29;20027;-58
2022/02/10 23:01:23;;;;;;;31.98;17.30;;;204.80;2252.80;;;;;;4933124;29;20087;-58
2022/02/10 23:03:48;;;;;;;35.90;23.98;;;204.80;2252.80;;;;;;4933080;29;20047;-58
2022/02/10 23:06:15;;;;;;;138.63;85.38;;;180.00;2252.80;;;;;;4933397;29;20458;-58
2022/02/10 23:08:41;;;;;;;115.88;70.75;;;180.10;2252.80;;;;;;4949387;28;20039;-58
2022/02/10 23:11:10;;;;;;;50.78;32.92;;;204.80;2252.80;;;;;;4973817;28;20462;-59
2022/02/10 23:13:35;;;;;;;48.17;31.75;;;204.80;2252.80;;;;;;4973764;28;20038;-58
2022/02/10 23:16:05;;;;;;;44.72;29.40;;;204.80;2252.80;;;;;;4973478;28;20031;-58
2022/02/10 23:18:32;;;;;;;47.80;30.77;;;204.90;2252.80;;;;;;4973591;28;20022;-58
2022/02/10 23:21:00;;;;;;;69.95;42.08;;;204.80;2252.80;;;;;;4973739;28;20118;-58
2022/02/10 23:23:28;;;;;;;58.22;42.05;;;204.80;2252.80;;;;;;4973506;28;20077;-58
2022/02/10 23:25:56;;;;;;;35.25;22.85;;;179.40;2252.80;;;;;;4973683;28;20485;-58
2022/02/10 23:28:26;;;;;;;38.75;23.27;;;180.00;2252.80;;;;;;4973097;28;20107;-58
2022/02/10 23:30:52;;;;;;;22.35;15.00;;;180.00;2252.80;;;;;;4973415;28;20440;-58
2022/02/10 23:33:24;;;;;;;28.27;19.35;;;180.10;2252.80;;;;;;4973486;28;20505;-58
2022/02/10 23:38:29;;;;;;;36.30;23.05;;;180.10;2252.80;;;;;;4973133;28;20038;-58
2022/02/10 23:41:50;;;;;;;123.57;64.22;;;180.00;2252.80;;;;;;4973249;28;20086;-58
2022/02/10 23:43:47;;;;;;;40.35;21.70;;;180.00;2252.80;;;;;;4970077;28;20050;-58
2022/02/10 23:46:13;;;;;;;24.55;14.13;;;180.00;2252.80;;;;;;4972952;28;20417;-58
2022/02/10 23:48:41;;;;;;;20.20;14.70;;;180.00;2252.80;;;;;;4972847;28;20050;-58
2022/02/10 23:51:07;;;;;;;37.10;22.42;;;179.80;2252.80;;;;;;4973216;28;20033;-58
2022/02/10 23:53:34;;;;;;;25.63;18.25;;;179.90;2252.80;;;;;;4973047;28;20031;-58
2022/02/10 23:56:04;;;;;;;32.17;18.80;;;179.90;2252.80;;;;;;4973018;28;20041;-58
